South Pass, Louisiana
Current Conditions -  °F | °C
As of 2:51 AM on Wednesday 26 Nov 2014 (Local Time) from KBVE Reporting Station
Clear Clear  
Wind Chill: 44°   Ceiling: Unl
Heat Index: 49°   Visibility: 10mi
Dew Point: 34°   Wind: 12mph
Humidity: 56%   Direction: 340°NNW
Pressure: 30.21"   Gusts: 17mph
Location:  29.2037°N, 89.3875°W
Report Text: KBVE 260851Z AUTO 34010G15KT 10SM CLR 09/01 A3021 RMK AO2 SLP228 T00940011 58000
Loading
Personal Weather Stations






























Interactive Weather Map New forecast layout! Learn more

10-Day Weather Forecast

Advertisements
Track Severe Weather on mobile